Time;durP1;ratioP1;P1;durP2;ratioP2;P2;SDS_P1;SDS_P2;PMS_P1;PMS_P2;Temp;Humidity;BMP_temperature;BMP_pressure;BME280_temperature;BME280_humidity;BME280_pressure;Samples;Min_cycle;Max_cycle;Signal;HPM_P1;HPM_P2
2022/06/19 00:01:55;;;;;;;2.72;2.08;;;13.90;99.90;;;;;;4878191;29;20502;-82
2022/06/19 00:04:21;;;;;;;0.00;0.00;;;13.90;99.90;;;;;;4864312;29;20535;-82
2022/06/19 00:06:47;;;;;;;0.00;0.00;;;14.00;99.90;;;;;;4881850;29;20041;-85
2022/06/19 00:09:13;;;;;;;0.65;0.65;;;14.00;99.90;;;;;;4881931;29;20045;-85
2022/06/19 00:11:39;;;;;;;0.00;0.00;;;14.00;99.90;;;;;;4881996;29;20049;-85
2022/06/19 00:14:07;;;;;;;0.38;0.38;;;14.00;99.90;;;;;;4881997;29;20460;-85
2022/06/19 00:16:33;;;;;;;0.00;0.00;;;14.00;99.90;;;;;;4881878;29;20060;-85
2022/06/19 00:18:59;;;;;;;0.03;0.03;;;14.00;99.90;;;;;;4866120;29;20045;-85
2022/06/19 00:21:25;;;;;;;0.00;0.00;;;14.00;99.90;;;;;;4850915;29;20053;-85
2022/06/19 00:23:51;;;;;;;0.00;0.00;;;14.00;99.90;;;;;;4866344;29;20041;-82
2022/06/19 00:26:17;;;;;;;0.00;0.00;;;14.00;99.90;;;;;;4881681;29;20064;-82
2022/06/19 00:28:46;;;;;;;0.10;0.10;;;14.00;99.90;;;;;;4881093;29;20084;-82
2022/06/19 00:31:12;;;;;;;0.00;0.00;;;14.00;99.90;;;;;;4881418;29;20093;-82
2022/06/19 00:33:38;;;;;;;0.00;0.00;;;14.00;99.90;;;;;;4881463;29;20511;-82
2022/06/19 00:36:04;;;;;;;0.22;0.22;;;14.10;99.90;;;;;;4865893;29;20045;-82
2022/06/19 00:38:30;;;;;;;0.00;0.00;;;14.10;99.90;;;;;;4881693;29;20401;-82
2022/06/19 00:40:57;;;;;;;0.00;0.00;;;14.20;99.90;;;;;;4866070;29;20037;-85
2022/06/19 00:43:24;;;;;;;0.45;0.45;;;14.30;99.90;;;;;;4881362;29;20127;-85
2022/06/19 00:45:50;;;;;;;0.15;0.15;;;14.30;99.90;;;;;;4881719;29;20113;-85
2022/06/19 00:48:37;;;;;;;1.65;1.10;;;14.30;99.90;;;;;;4881579;29;20054;-85
2022/06/19 00:51:05;;;;;;;;;;;14.40;99.90;;;;;;4881951;29;20164;-85
2022/06/19 00:53:46;;;;;;;0.00;0.00;;;14.40;99.90;;;;;;4881520;29;20402;-85
2022/06/19 00:56:16;;;;;;;0.10;0.10;;;14.40;99.90;;;;;;4865800;29;20037;-85
2022/06/19 00:58:43;;;;;;;0.00;0.00;;;14.50;99.90;;;;;;4881693;29;20208;-85
2022/06/19 01:01:13;;;;;;;0.10;0.10;;;14.50;99.90;;;;;;4881304;29;20053;-85
2022/06/19 01:03:48;;;;;;;0.73;0.63;;;14.50;99.90;;;;;;4880958;29;20524;-85
2022/06/19 01:06:14;;;;;;;0.25;0.20;;;14.50;99.90;;;;;;4881181;29;20041;-85
2022/06/19 01:08:40;;;;;;;0.00;0.00;;;14.60;99.90;;;;;;4880848;29;20181;-84
2022/06/19 01:11:06;;;;;;;1.15;0.40;;;14.60;99.90;;;;;;4881068;29;20096;-85
2022/06/19 01:13:33;;;;;;;0.00;0.00;;;14.60;99.90;;;;;;4871738;29;20039;-84
2022/06/19 01:16:02;;;;;;;0.00;0.00;;;14.60;99.90;;;;;;4865355;29;20045;-84
2022/06/19 01:18:29;;;;;;;0.10;0.10;;;14.60;99.90;;;;;;4880593;29;20132;-84
2022/06/19 01:20:59;;;;;;;0.00;0.00;;;14.70;99.90;;;;;;4880823;29;20049;-84
2022/06/19 01:23:47;;;;;;;0.00;0.00;;;14.70;99.90;;;;;;4865058;29;20128;-84
2022/06/19 01:26:14;;;;;;;1.38;0.88;;;14.70;99.90;;;;;;4862027;29;20045;-84
2022/06/19 01:28:55;;;;;;;0.00;0.00;;;14.60;99.90;;;;;;4877439;29;20050;-84
2022/06/19 01:31:29;;;;;;;3.33;2.08;;;14.60;99.90;;;;;;4877800;29;20145;-82
2022/06/19 01:34:28;;;;;;;0.03;0.03;;;14.60;99.90;;;;;;4861930;29;20081;-82
2022/06/19 01:37:12;;;;;;;2.17;2.05;;;14.50;99.90;;;;;;4860777;29;20041;-82
2022/06/19 01:39:42;;;;;;;0.00;0.00;;;14.50;99.90;;;;;;4846467;29;20049;-82
2022/06/19 01:42:11;;;;;;;4.07;0.30;;;14.50;99.90;;;;;;4846370;29;20505;-82
2022/06/19 01:44:41;;;;;;;0.03;0.03;;;14.60;99.90;;;;;;4861675;29;20053;-82
2022/06/19 01:47:07;;;;;;;0.00;0.00;;;14.60;99.90;;;;;;4861752;29;20041;-82
2022/06/19 01:49:36;;;;;;;0.00;0.00;;;14.60;99.90;;;;;;4846581;29;20037;-82
2022/06/19 01:52:04;;;;;;;1.85;1.00;;;14.60;99.90;;;;;;4861363;29;20140;-82
2022/06/19 01:54:40;;;;;;;0.00;0.00;;;14.50;99.90;;;;;;4861716;29;20136;-82
2022/06/19 01:57:08;;;;;;;0.10;0.10;;;14.50;99.90;;;;;;4877039;29;20052;-82
2022/06/19 01:59:36;;;;;;;0.10;0.10;;;14.50;99.90;;;;;;4831050;29;20446;-82
2022/06/19 02:02:04;;;;;;;0.32;0.32;;;14.50;99.90;;;;;;4861375;29;20042;-82
2022/06/19 02:04:31;;;;;;;0.80;0.10;;;14.50;99.90;;;;;;4861459;29;20129;-82
2022/06/19 02:07:00;;;;;;;4.03;1.95;;;14.50;99.90;;;;;;4871079;29;20135;-82
2022/06/19 02:09:25;;;;;;;0.10;0.10;;;14.50;99.90;;;;;;4879643;29;20124;-82
2022/06/19 02:11:51;;;;;;;0.00;0.00;;;14.50;99.90;;;;;;4879704;29;20045;-82
2022/06/19 02:14:19;;;;;;;0.10;0.10;;;14.50;99.90;;;;;;4879879;29;20052;-82
2022/06/19 02:16:47;;;;;;;0.10;0.10;;;14.50;99.90;;;;;;4864145;29;20373;-82
2022/06/19 02:19:14;;;;;;;0.13;0.13;;;14.50;99.90;;;;;;4864404;29;20076;-82
2022/06/19 02:21:45;;;;;;;0.10;0.10;;;14.50;99.90;;;;;;4895304;29;20124;-82
2022/06/19 02:24:15;;;;;;;0.20;0.20;;;14.40;99.90;;;;;;4894931;29;20052;-82
2022/06/19 02:26:42;;;;;;;0.20;0.20;;;14.50;99.90;;;;;;4878950;29;20041;-82
2022/06/19 02:29:10;;;;;;;0.00;0.00;;;14.40;99.90;;;;;;4879232;29;20049;-82
2022/06/19 02:31:41;;;;;;;0.00;0.00;;;14.40;99.90;;;;;;4879692;29;20048;-82
2022/06/19 02:34:18;;;;;;;0.05;0.05;;;14.40;99.90;;;;;;4879287;29;20469;-82
2022/06/19 02:36:48;;;;;;;0.40;0.30;;;14.40;99.90;;;;;;4879224;29;20041;-82
2022/06/19 02:39:38;;;;;;;0.00;0.00;;;14.40;99.90;;;;;;4879353;29;20083;-81
2022/06/19 02:42:28;;;;;;;0.10;0.10;;;14.40;99.90;;;;;;4879483;29;20044;-81
2022/06/19 02:45:01;;;;;;;0.00;0.00;;;14.40;99.90;;;;;;4879140;29;20087;-81
2022/06/19 02:47:30;;;;;;;0.40;0.40;;;14.40;99.90;;;;;;4879033;29;20052;-81
2022/06/19 02:49:56;;;;;;;0.00;0.00;;;14.30;99.90;;;;;;4879218;29;20049;-81
2022/06/19 02:52:22;;;;;;;0.00;0.00;;;14.30;99.90;;;;;;4879034;29;20411;-81
2022/06/19 02:54:48;;;;;;;0.35;0.20;;;14.30;99.90;;;;;;4879311;29;20049;-86
2022/06/19 02:57:16;;;;;;;0.00;0.00;;;14.30;99.90;;;;;;4878782;29;20048;-86
2022/06/19 02:59:41;;;;;;;0.13;0.13;;;14.30;99.90;;;;;;4863518;29;20127;-85
2022/06/19 03:02:08;;;;;;;0.00;0.00;;;14.30;99.90;;;;;;4879134;29;20072;-85
2022/06/19 03:04:38;;;;;;;0.08;0.08;;;14.30;99.90;;;;;;4863362;29;20097;-86
2022/06/19 03:07:04;;;;;;;0.00;0.00;;;14.20;99.90;;;;;;4863331;29;20052;-85
2022/06/19 03:09:30;;;;;;;0.00;0.00;;;14.20;99.90;;;;;;4878703;29;20044;-83
2022/06/19 03:11:56;;;;;;;0.75;0.65;;;14.10;99.90;;;;;;4878066;29;20048;-83
2022/06/19 03:14:23;;;;;;;0.65;0.60;;;14.10;99.90;;;;;;4875714;29;20507;-83
2022/06/19 03:16:49;;;;;;;1.30;1.20;;;14.00;99.90;;;;;;4894189;29;20037;-84
2022/06/19 03:19:14;;;;;;;2.75;1.42;;;14.00;99.90;;;;;;4878725;29;20504;-83
2022/06/19 03:21:40;;;;;;;3.65;1.85;;;13.70;99.90;;;;;;4863161;29;20129;-83
2022/06/19 03:24:06;;;;;;;0.30;0.30;;;13.20;99.90;;;;;;4863193;29;20043;-83
2022/06/19 03:26:32;;;;;;;0.00;0.00;;;12.80;99.90;;;;;;4878852;29;20041;-81
2022/06/19 03:28:58;;;;;;;0.25;0.25;;;12.60;99.90;;;;;;4878305;29;20111;-81
2022/06/19 03:31:26;;;;;;;0.00;0.00;;;12.50;99.90;;;;;;4878706;29;20111;-81
2022/06/19 03:33:52;;;;;;;0.00;0.00;;;12.40;99.90;;;;;;4878357;29;20503;-81
2022/06/19 03:36:18;;;;;;;1.20;0.47;;;12.30;99.90;;;;;;4878306;29;20045;-81
2022/06/19 03:38:45;;;;;;;0.08;0.08;;;12.20;99.90;;;;;;4878252;29;20069;-81
2022/06/19 03:41:11;;;;;;;0.63;0.63;;;12.10;99.90;;;;;;4878346;29;20120;-81
2022/06/19 03:43:37;;;;;;;0.10;0.10;;;12.00;99.90;;;;;;4878158;29;20483;-81
2022/06/19 03:46:12;;;;;;;0.75;0.55;;;11.90;99.90;;;;;;4878429;29;20436;-81
2022/06/19 03:48:50;;;;;;;0.00;0.00;;;11.90;99.90;;;;;;4893989;29;20053;-81
2022/06/19 03:51:16;;;;;;;0.38;0.38;;;11.80;99.90;;;;;;4893819;29;20056;-81
2022/06/19 03:53:45;;;;;;;0.13;0.13;;;11.70;99.90;;;;;;4878043;29;20044;-81
2022/06/19 03:56:17;;;;;;;0.17;0.17;;;11.70;99.90;;;;;;4862716;29;20128;-81
2022/06/19 03:58:45;;;;;;;0.00;0.00;;;11.70;99.90;;;;;;4894000;29;20045;-81
2022/06/19 04:01:16;;;;;;;0.08;0.08;;;11.70;99.90;;;;;;4878098;29;20098;-84
2022/06/19 04:03:45;;;;;;;0.08;0.08;;;11.80;99.90;;;;;;4878416;29;20045;-84
2022/06/19 04:06:13;;;;;;;0.15;0.15;;;11.80;99.90;;;;;;4862713;29;20061;-83
2022/06/19 04:08:40;;;;;;;0.10;0.10;;;11.80;99.90;;;;;;4878535;29;20470;-83
2022/06/19 04:11:07;;;;;;;0.08;0.08;;;11.80;99.90;;;;;;4893514;29;20061;-84
2022/06/19 04:13:34;;;;;;;0.30;0.30;;;11.70;99.90;;;;;;4890160;29;20041;-84
2022/06/19 04:16:01;;;;;;;0.10;0.10;;;11.70;99.90;;;;;;4859617;29;20042;-81
2022/06/19 04:18:29;;;;;;;0.00;0.00;;;11.70;99.90;;;;;;4859372;29;20519;-81
2022/06/19 04:20:56;;;;;;;0.00;0.00;;;11.60;99.90;;;;;;4829521;29;20496;-81
2022/06/19 04:23:22;;;;;;;0.00;0.00;;;11.70;99.90;;;;;;4844030;29;20047;-81
2022/06/19 04:25:48;;;;;;;0.75;0.75;;;11.60;99.90;;;;;;4877836;29;20045;-81
2022/06/19 04:28:15;;;;;;;0.10;0.10;;;11.70;99.90;;;;;;4877869;29;20092;-81
2022/06/19 04:30:46;;;;;;;0.00;0.00;;;11.70;99.90;;;;;;4878117;29;20057;-81
2022/06/19 04:33:14;;;;;;;0.10;0.10;;;11.80;99.90;;;;;;4863757;29;20049;-81
2022/06/19 04:35:40;;;;;;;0.00;0.00;;;11.80;99.90;;;;;;4877662;29;20056;-81
2022/06/19 04:38:05;;;;;;;0.20;0.20;;;11.80;99.90;;;;;;4862374;29;20135;-82
2022/06/19 04:40:34;;;;;;;0.00;0.00;;;11.90;99.90;;;;;;4862572;29;20059;-81
2022/06/19 04:42:59;;;;;;;0.00;0.00;;;11.90;99.90;;;;;;4862215;29;20052;-81
2022/06/19 04:45:25;;;;;;;0.10;0.10;;;11.90;99.90;;;;;;4877653;29;20041;-81
2022/06/19 04:47:51;;;;;;;0.08;0.08;;;11.90;99.90;;;;;;4847566;29;20132;-81
2022/06/19 04:50:17;;;;;;;0.20;0.20;;;11.90;99.90;;;;;;4879539;29;20041;-85
2022/06/19 04:52:42;;;;;;;0.00;0.00;;;11.90;99.90;;;;;;4881498;29;20159;-85
2022/06/19 04:55:13;;;;;;;0.00;0.00;;;11.80;99.90;;;;;;4881040;29;20488;-85
2022/06/19 04:57:39;;;;;;;0.20;0.20;;;11.80;99.90;;;;;;4881100;29;20041;-85
2022/06/19 05:00:10;;;;;;;1.45;0.75;;;11.80;99.90;;;;;;4880924;29;20041;-85
2022/06/19 05:02:36;;;;;;;0.00;0.00;;;11.80;99.90;;;;;;4865472;29;20077;-85
2022/06/19 05:05:03;;;;;;;0.00;0.00;;;11.80;99.90;;;;;;4865330;29;20045;-85
2022/06/19 05:07:28;;;;;;;0.00;0.00;;;11.70;99.90;;;;;;4865427;29;20051;-81
2022/06/19 05:09:54;;;;;;;0.10;0.10;;;11.70;99.90;;;;;;4865282;29;20045;-81
2022/06/19 05:12:20;;;;;;;0.00;0.00;;;11.80;99.90;;;;;;4880763;29;20053;-81
2022/06/19 05:14:45;;;;;;;0.00;0.00;;;11.90;99.90;;;;;;4849870;29;20080;-81
2022/06/19 05:17:11;;;;;;;1.55;0.43;;;12.00;99.90;;;;;;4865055;29;20083;-81
2022/06/19 05:19:40;;;;;;;0.17;0.17;;;12.00;99.90;;;;;;4880905;29;20060;-81
2022/06/19 05:22:06;;;;;;;0.00;0.00;;;12.10;99.90;;;;;;4880621;29;20583;-81
2022/06/19 05:24:35;;;;;;;0.00;0.00;;;12.10;99.90;;;;;;4865068;29;20501;-83
2022/06/19 05:27:05;;;;;;;0.00;0.00;;;12.00;99.90;;;;;;4865121;29;20044;-83
2022/06/19 05:29:32;;;;;;;0.30;0.30;;;12.00;99.90;;;;;;4864763;29;20181;-83
2022/06/19 05:31:58;;;;;;;0.00;0.00;;;11.90;99.90;;;;;;4880538;29;20527;-83
2022/06/19 05:34:24;;;;;;;0.10;0.10;;;12.40;99.90;;;;;;4880397;29;20044;-83
2022/06/19 05:36:50;;;;;;;0.00;0.00;;;11.90;99.90;;;;;;4880642;29;20056;-83
2022/06/19 05:39:16;;;;;;;0.00;0.00;;;11.80;99.90;;;;;;4880350;29;20045;-83
2022/06/19 05:41:42;;;;;;;0.68;0.50;;;11.90;99.90;;;;;;4880427;29;20045;-83
2022/06/19 05:44:10;;;;;;;0.10;0.10;;;12.00;99.90;;;;;;4880254;29;20041;-83
2022/06/19 05:46:36;;;;;;;0.00;0.00;;;12.00;99.90;;;;;;4880148;29;20096;-83
2022/06/19 05:49:02;;;;;;;0.00;0.00;;;12.10;99.90;;;;;;4864966;29;20056;-83
2022/06/19 05:51:27;;;;;;;0.10;0.10;;;12.20;99.90;;;;;;4880198;29;20511;-83
2022/06/19 05:53:56;;;;;;;0.00;0.00;;;12.20;99.90;;;;;;4880254;29;20076;-83
2022/06/19 05:56:23;;;;;;;0.00;0.00;;;12.30;99.90;;;;;;4864527;29;20041;-83
2022/06/19 05:58:49;;;;;;;0.00;0.00;;;12.30;99.90;;;;;;4879970;29;20064;-82
2022/06/19 06:01:16;;;;;;;5.15;0.40;;;12.30;99.90;;;;;;4863484;29;20045;-82
2022/06/19 06:03:42;;;;;;;0.10;0.10;;;12.20;99.90;;;;;;4880177;29;20365;-82
2022/06/19 06:06:16;;;;;;;0.00;0.00;;;12.30;99.90;;;;;;4879902;29;20041;-82
2022/06/19 06:08:42;;;;;;;0.03;0.03;;;12.40;99.90;;;;;;4864350;29;20052;-82
2022/06/19 06:11:08;;;;;;;0.10;0.10;;;12.40;99.90;;;;;;4879792;29;20045;-82
2022/06/19 06:13:34;;;;;;;0.00;0.00;;;12.40;99.90;;;;;;4879731;29;20056;-81
2022/06/19 06:16:01;;;;;;;0.00;0.00;;;12.50;99.90;;;;;;4879817;29;20045;-81
2022/06/19 06:18:28;;;;;;;0.15;0.15;;;12.50;99.90;;;;;;4879621;29;20056;-81
2022/06/19 06:21:02;;;;;;;0.00;0.00;;;12.60;99.90;;;;;;4879861;29;20048;-81
2022/06/19 06:23:29;;;;;;;0.10;0.10;;;12.60;99.90;;;;;;4864257;29;20072;-80
2022/06/19 06:26:11;;;;;;;0.05;0.05;;;12.60;99.90;;;;;;4879379;29;20061;-81
2022/06/19 06:28:40;;;;;;;0.00;0.00;;;12.70;99.90;;;;;;4879401;29;20144;-81
2022/06/19 06:31:06;;;;;;;0.00;0.00;;;12.70;99.90;;;;;;4894848;29;20534;-81
2022/06/19 06:33:32;;;;;;;9.32;0.40;;;12.80;99.90;;;;;;4879343;29;20136;-81
2022/06/19 06:35:58;;;;;;;0.00;0.00;;;12.70;99.90;;;;;;4879216;29;20041;-80
2022/06/19 06:38:24;;;;;;;0.00;0.00;;;12.80;99.90;;;;;;4864077;29;20404;-81
2022/06/19 06:40:50;;;;;;;0.00;0.00;;;12.90;99.90;;;;;;4863678;29;20480;-81
2022/06/19 06:43:17;;;;;;;4.47;0.90;;;13.00;99.90;;;;;;4879161;29;20040;-81
2022/06/19 06:45:43;;;;;;;0.00;0.00;;;13.00;99.90;;;;;;4878729;29;20037;-80
2022/06/19 06:48:09;;;;;;;0.10;0.10;;;13.20;99.90;;;;;;4879154;29;20048;-80
2022/06/19 06:50:37;;;;;;;0.00;0.00;;;13.40;99.90;;;;;;4863814;29;20045;-81
2022/06/19 06:53:03;;;;;;;0.00;0.00;;;13.60;99.90;;;;;;4879209;29;20275;-80
2022/06/19 06:55:29;;;;;;;0.00;0.00;;;13.70;99.90;;;;;;4863704;29;20052;-81
2022/06/19 06:57:54;;;;;;;0.00;0.00;;;13.70;99.90;;;;;;4879237;29;20480;-81
2022/06/19 07:00:23;;;;;;;0.20;0.20;;;13.60;99.90;;;;;;4863669;29;20540;-80
2022/06/19 07:02:49;;;;;;;0.00;0.00;;;13.50;99.90;;;;;;4894156;29;20064;-83
2022/06/19 07:05:15;;;;;;;0.00;0.00;;;13.40;99.90;;;;;;4863281;29;20049;-84
2022/06/19 07:07:41;;;;;;;0.00;0.00;;;13.50;99.90;;;;;;4878812;29;20037;-83
2022/06/19 07:10:08;;;;;;;0.00;0.00;;;13.50;99.90;;;;;;4878554;29;20184;-84
2022/06/19 07:12:34;;;;;;;0.05;0.05;;;13.70;99.90;;;;;;4878723;29;20080;-84
2022/06/19 07:15:00;;;;;;;0.00;0.00;;;13.80;99.90;;;;;;4878610;29;20059;-84
2022/06/19 07:17:25;;;;;;;0.00;0.00;;;13.80;99.90;;;;;;4863250;29;20064;-84
2022/06/19 07:19:52;;;;;;;0.00;0.00;;;13.80;99.90;;;;;;4878643;29;20037;-80
2022/06/19 07:22:18;;;;;;;0.00;0.00;;;13.80;99.90;;;;;;4878670;29;20124;-80
2022/06/19 07:24:46;;;;;;;0.20;0.20;;;14.10;99.90;;;;;;4878667;29;20041;-80
2022/06/19 07:27:13;;;;;;;0.00;0.00;;;13.90;99.90;;;;;;4878744;29;20056;-80
2022/06/19 07:29:44;;;;;;;0.00;0.00;;;13.80;99.90;;;;;;4878243;29;20048;-80
2022/06/19 07:32:11;;;;;;;0.00;0.00;;;13.90;99.90;;;;;;4878410;29;20052;-80
2022/06/19 07:34:38;;;;;;;0.00;0.00;;;13.90;99.90;;;;;;4878391;29;20132;-80
2022/06/19 07:37:04;;;;;;;0.00;0.00;;;13.80;99.90;;;;;;4878249;29;20041;-83
2022/06/19 07:39:31;;;;;;;0.20;0.20;;;13.80;99.90;;;;;;4878546;29;20143;-84
2022/06/19 07:41:57;;;;;;;0.00;0.00;;;13.90;99.90;;;;;;4878587;29;20053;-84
2022/06/19 07:44:22;;;;;;;0.00;0.00;;;13.90;99.90;;;;;;4878260;29;20557;-84
2022/06/19 07:52:16;;;;;;;0.00;0.00;;;13.90;99.90;;;;;;4878283;29;20051;-84
2022/06/19 07:54:42;;;;;;;0.00;0.00;;;13.90;99.90;;;;;;4878333;29;20045;-80
2022/06/19 07:57:08;;;;;;;0.00;0.00;;;13.70;99.90;;;;;;4878157;29;20085;-80
2022/06/19 07:59:33;;;;;;;0.25;0.20;;;13.70;99.90;;;;;;4878171;29;20049;-80
2022/06/19 08:01:59;;;;;;;0.08;0.08;;;13.70;99.90;;;;;;4878404;29;20049;-80
2022/06/19 08:04:25;;;;;;;0.10;0.10;;;13.80;99.90;;;;;;4862637;29;20041;-80
2022/06/19 08:06:51;;;;;;;0.10;0.10;;;14.90;99.90;;;;;;4878360;29;20050;-80
2022/06/19 08:09:17;;;;;;;0.63;0.32;;;14.00;99.90;;;;;;4878114;29;20049;-80
2022/06/19 08:11:42;;;;;;;0.10;0.10;;;14.30;99.90;;;;;;4878127;29;20045;-81
2022/06/19 08:14:08;;;;;;;0.00;0.00;;;14.40;99.90;;;;;;4877993;29;20052;-81
2022/06/19 08:16:34;;;;;;;0.00;0.00;;;14.40;99.90;;;;;;4847126;29;20140;-81
2022/06/19 08:19:00;;;;;;;0.00;0.00;;;14.40;99.90;;;;;;4877951;29;20049;-81
2022/06/19 08:21:26;;;;;;;0.40;0.40;;;14.30;99.90;;;;;;4862562;29;20080;-81
2022/06/19 08:23:52;;;;;;;0.00;0.00;;;14.20;99.90;;;;;;4877839;29;20048;-81
2022/06/19 08:26:18;;;;;;;0.00;0.00;;;14.20;99.90;;;;;;4881061;29;20045;-80
2022/06/19 08:31:15;;;;;;;0.00;0.00;;;14.10;99.90;;;;;;4881542;29;20052;-80
2022/06/19 08:33:41;;;;;;;0.00;0.00;;;14.20;99.90;;;;;;4882073;29;20188;-80
2022/06/19 08:36:10;;;;;;;0.10;0.10;;;14.20;99.90;;;;;;4881350;29;20048;-80
2022/06/19 08:39:00;;;;;;;0.13;0.13;;;14.20;99.90;;;;;;4881265;29;20132;-80
2022/06/19 08:41:48;;;;;;;0.00;0.00;;;14.40;99.90;;;;;;4881668;29;20396;-80
2022/06/19 08:44:14;;;;;;;0.17;0.17;;;14.60;99.90;;;;;;4900669;23;20147;-80
2022/06/19 08:46:48;;;;;;;0.00;0.00;;;14.70;99.90;;;;;;4899906;29;20583;-80
2022/06/19 08:49:17;;;;;;;0.00;0.00;;;14.70;99.90;;;;;;4899859;29;20045;-80
2022/06/19 08:51:55;;;;;;;0.00;0.00;;;14.80;99.90;;;;;;4884336;29;20052;-81
2022/06/19 08:54:49;;;;;;;0.00;0.00;;;14.80;99.90;;;;;;4884259;29;20048;-80
2022/06/19 08:57:51;;;;;;;0.00;0.00;;;15.10;99.90;;;;;;4899842;29;20045;-80
2022/06/19 09:00:38;;;;;;;0.08;0.08;;;15.40;99.90;;;;;;4880551;29;20139;-81
2022/06/19 09:05:36;;;;;;;0.00;0.00;;;15.70;99.90;;;;;;4884147;29;20180;-81
2022/06/19 09:06:26;;;;;;;0.10;0.10;;;15.90;99.90;;;;;;4899882;29;20075;-81
2022/06/19 09:09:27;;;;;;;0.00;0.00;;;16.00;99.90;;;;;;4884252;29;20127;-81
2022/06/19 09:12:10;;;;;;;0.10;0.10;;;16.10;99.90;;;;;;4858624;29;20057;-81
2022/06/19 09:14:46;;;;;;;0.00;0.00;;;16.20;99.90;;;;;;4899602;29;20052;-81
2022/06/19 09:17:18;;;;;;;0.00;0.00;;;16.40;99.90;;;;;;4883790;29;20052;-81
2022/06/19 09:19:47;;;;;;;4.13;0.75;;;16.60;99.90;;;;;;4899398;29;20491;-81
2022/06/19 09:22:41;;;;;;;0.00;0.00;;;16.70;99.90;;;;;;4899410;29;20096;-81
2022/06/19 09:25:31;;;;;;;0.00;0.00;;;17.00;99.90;;;;;;4899024;29;20081;-81
2022/06/19 09:28:09;;;;;;;0.10;0.10;;;17.10;99.90;;;;;;4883964;29;20365;-81
2022/06/19 09:30:42;;;;;;;0.00;0.00;;;17.20;99.90;;;;;;4883913;29;20051;-81
2022/06/19 09:33:28;;;;;;;0.10;0.10;;;17.20;99.90;;;;;;4883525;29;20037;-81
2022/06/19 09:36:41;;;;;;;0.00;0.00;;;17.30;99.90;;;;;;4846329;29;20056;-81
2022/06/19 09:39:22;;;;;;;0.10;0.10;;;17.70;99.90;;;;;;4842241;29;20294;-81
2022/06/19 09:42:10;;;;;;;0.00;0.00;;;17.80;99.90;;;;;;4898299;29;20180;-81
2022/06/19 09:44:58;;;;;;;0.00;0.00;;;18.10;99.90;;;;;;4898817;29;20464;-81
2022/06/19 09:47:42;;;;;;;0.00;0.00;;;18.30;99.90;;;;;;4898946;29;20411;-81
2022/06/19 09:50:30;;;;;;;0.00;0.00;;;18.40;99.90;;;;;;4899278;29;20441;-85
2022/06/19 09:53:04;;;;;;;0.00;0.00;;;18.50;99.90;;;;;;4898759;29;20495;-85
2022/06/19 09:55:42;;;;;;;0.00;0.00;;;18.70;99.90;;;;;;4898816;29;20054;-85
2022/06/19 09:58:34;;;;;;;0.57;0.57;;;20.20;99.90;;;;;;4883623;29;20079;-86
2022/06/19 10:01:03;;;;;;;0.00;0.00;;;21.10;99.90;;;;;;4883598;29;20115;-86
2022/06/19 10:03:54;;;;;;;0.00;0.00;;;21.80;99.90;;;;;;4898871;29;20119;-86
2022/06/19 10:06:32;;;;;;;0.03;0.03;;;22.00;99.90;;;;;;4898821;29;20057;-82
2022/06/19 10:09:04;;;;;;;0.00;0.00;;;21.70;99.90;;;;;;4882924;29;20104;-81
2022/06/19 10:11:33;;;;;;;0.10;0.10;;;21.50;99.90;;;;;;4882958;29;20052;-81
2022/06/19 10:14:17;;;;;;;0.00;0.00;;;21.20;99.90;;;;;;4898320;29;20045;-81
2022/06/19 10:16:57;;;;;;;0.00;0.00;;;20.90;99.90;;;;;;4898285;29;20045;-81
2022/06/19 10:20:06;;;;;;;0.52;0.25;;;20.80;99.90;;;;;;4898187;29;20137;-81
2022/06/19 10:23:07;;;;;;;0.05;0.05;;;21.20;99.90;;;;;;4876049;29;20067;-84
2022/06/19 10:25:48;;;;;;;0.00;0.00;;;23.00;99.90;;;;;;4872626;29;20060;-85
2022/06/19 10:28:32;;;;;;;0.00;0.00;;;24.30;99.90;;;;;;4898300;29;20044;-84
2022/06/19 10:31:14;;;;;;;0.22;0.22;;;24.30;95.30;;;;;;4898638;29;20094;-85
2022/06/19 10:33:56;;;;;;;0.00;0.00;;;24.60;98.60;;;;;;4882768;29;20399;-84
2022/06/19 10:36:47;;;;;;;0.03;0.03;;;25.60;97.30;;;;;;4882510;29;20051;-84
2022/06/19 10:39:36;;;;;;;0.10;0.10;;;25.20;96.40;;;;;;4898239;29;20399;-84
2022/06/19 10:42:11;;;;;;;0.10;0.10;;;24.10;95.70;;;;;;4898013;29;20076;-84
2022/06/19 10:44:43;;;;;;;0.10;0.10;;;23.10;95.70;;;;;;4882024;29;20141;-84
2022/06/19 10:47:27;;;;;;;1.08;0.13;;;22.60;96.80;;;;;;4897329;29;20163;-84
2022/06/19 10:50:11;;;;;;;0.20;0.20;;;22.30;97.90;;;;;;4897990;29;20507;-84
2022/06/19 10:53:10;;;;;;;0.10;0.10;;;21.70;97.70;;;;;;4882459;29;20395;-84
2022/06/19 10:56:06;;;;;;;0.00;0.00;;;21.20;97.90;;;;;;4897485;29;20044;-84
2022/06/19 10:58:32;;;;;;;0.10;0.10;;;20.90;98.80;;;;;;4897954;29;20419;-81
2022/06/19 11:01:01;;;;;;;0.00;0.00;;;20.70;99.40;;;;;;4897523;29;20127;-81
2022/06/19 11:04:08;;;;;;;0.00;0.00;;;20.50;99.30;;;;;;4882091;29;20039;-81
2022/06/19 11:07:00;;;;;;;0.10;0.10;;;20.30;99.80;;;;;;4882248;29;20062;-81
2022/06/19 11:09:36;;;;;;;0.25;0.25;;;20.00;99.80;;;;;;4897522;29;20045;-81
2022/06/19 11:12:22;;;;;;;0.00;0.00;;;19.80;99.90;;;;;;4881762;29;20135;-81
2022/06/19 11:14:53;;;;;;;0.00;0.00;;;19.70;99.90;;;;;;4879084;29;20052;-84
2022/06/19 11:17:37;;;;;;;5.60;0.15;;;19.60;99.90;;;;;;4878735;29;20041;-84
2022/06/19 11:20:26;;;;;;;0.00;0.00;;;19.40;99.90;;;;;;4878542;29;20045;-84
2022/06/19 11:23:07;;;;;;;0.00;0.00;;;19.20;99.90;;;;;;4878724;29;20100;-84
2022/06/19 11:25:38;;;;;;;0.00;0.00;;;19.10;99.90;;;;;;4895398;29;20048;-84
2022/06/19 11:28:14;;;;;;;0.05;0.05;;;18.90;99.90;;;;;;4881745;29;20172;-84
2022/06/19 11:30:50;;;;;;;0.00;0.00;;;18.60;99.90;;;;;;4897216;29;20040;-85
2022/06/19 11:33:36;;;;;;;0.00;0.00;;;18.60;99.90;;;;;;4881997;29;20420;-85
2022/06/19 11:36:08;;;;;;;0.05;0.05;;;18.40;99.90;;;;;;4897135;29;20058;-85
2022/06/19 11:38:41;;;;;;;0.05;0.05;;;18.20;99.90;;;;;;4881847;29;20373;-85
2022/06/19 11:41:22;;;;;;;0.00;0.00;;;18.00;99.90;;;;;;4897427;29;20408;-85
2022/06/19 11:44:06;;;;;;;0.10;0.10;;;18.00;99.90;;;;;;4881601;29;20056;-85
2022/06/19 11:46:41;;;;;;;0.00;0.00;;;18.00;99.90;;;;;;4897111;29;20056;-85
2022/06/19 11:49:25;;;;;;;0.00;0.00;;;18.10;99.90;;;;;;4882649;29;20056;-85
2022/06/19 11:51:52;;;;;;;0.00;0.00;;;18.10;99.90;;;;;;4897289;29;20055;-85
2022/06/19 11:54:31;;;;;;;0.10;0.10;;;18.10;99.90;;;;;;4881361;29;20123;-85
2022/06/19 11:56:58;;;;;;;0.00;0.00;;;18.00;99.90;;;;;;4896944;29;20055;-85
2022/06/19 11:59:44;;;;;;;0.00;0.00;;;17.90;99.90;;;;;;4897210;29;20041;-84
2022/06/19 12:02:34;;;;;;;0.10;0.10;;;17.90;99.90;;;;;;4900897;29;20048;-85
2022/06/19 12:05:06;;;;;;;0.00;0.00;;;17.80;99.90;;;;;;4900905;29;20044;-84
2022/06/19 12:07:37;;;;;;;0.10;0.10;;;18.00;99.90;;;;;;4900811;29;20436;-83
2022/06/19 12:10:05;;;;;;;0.20;0.20;;;18.40;99.90;;;;;;4901030;29;20052;-84
2022/06/19 12:12:33;;;;;;;0.00;0.00;;;19.00;99.90;;;;;;4885207;29;20048;-83
2022/06/19 12:15:12;;;;;;;0.00;0.00;;;20.10;99.90;;;;;;4900939;29;20052;-83
2022/06/19 12:17:44;;;;;;;0.00;0.00;;;21.10;99.90;;;;;;4900623;29;20044;-83
2022/06/19 12:20:15;;;;;;;0.00;0.00;;;21.90;99.60;;;;;;4900648;29;20041;-85
2022/06/19 12:23:01;;;;;;;0.85;0.85;;;22.50;96.70;;;;;;4900809;29;20037;-85
2022/06/19 12:25:38;;;;;;;0.10;0.10;;;23.70;97.40;;;;;;4897330;29;20049;-85
2022/06/19 12:28:13;;;;;;;0.00;0.00;;;24.00;96.30;;;;;;4866545;29;20059;-86
2022/06/19 12:30:48;;;;;;;0.00;0.00;;;25.60;94.30;;;;;;4866241;29;20045;-85
2022/06/19 12:33:30;;;;;;;0.70;0.70;;;26.10;92.80;;;;;;4866532;29;20049;-85
2022/06/19 12:35:56;;;;;;;0.10;0.10;;;26.50;92.40;;;;;;4881827;29;20176;-86
2022/06/19 12:38:24;;;;;;;0.65;0.65;;;26.70;91.00;;;;;;4866466;29;20045;-85
2022/06/19 12:41:10;;;;;;;0.30;0.30;;;26.50;89.40;;;;;;4866239;29;20064;-86
2022/06/19 12:43:53;;;;;;;0.45;0.32;;;26.30;87.60;;;;;;4881249;29;20056;-86
2022/06/19 12:46:43;;;;;;;0.00;0.00;;;26.30;88.50;;;;;;4866041;29;20492;-86
2022/06/19 12:49:15;;;;;;;0.00;0.00;;;26.10;86.40;;;;;;4881368;29;20045;-86
2022/06/19 12:52:06;;;;;;;0.20;0.20;;;25.70;83.60;;;;;;4882908;29;20095;-85
2022/06/19 12:55:09;;;;;;;0.00;0.00;;;25.20;86.40;;;;;;4884382;29;20049;-84
2022/06/19 12:57:56;;;;;;;0.00;0.00;;;25.00;87.50;;;;;;4899893;29;20044;-84
2022/06/19 13:00:25;;;;;;;0.00;0.00;;;25.10;85.70;;;;;;4899814;29;20049;-84
2022/06/19 13:03:00;;;;;;;0.88;0.20;;;25.10;85.60;;;;;;4884250;29;20041;-84
2022/06/19 13:05:51;;;;;;;1.55;0.85;;;25.20;86.10;;;;;;4899801;29;20081;-84
2022/06/19 13:08:26;;;;;;;0.00;0.00;;;26.00;84.80;;;;;;4899583;29;20060;-84
2022/06/19 13:11:07;;;;;;;0.17;0.17;;;26.10;84.00;;;;;;4883638;29;20051;-81
2022/06/19 13:13:56;;;;;;;0.35;0.35;;;26.10;80.00;;;;;;4881112;29;20127;-81
2022/06/19 13:16:37;;;;;;;0.17;0.17;;;25.90;80.40;;;;;;4880764;29;20484;-81
2022/06/19 13:19:31;;;;;;;0.00;0.00;;;26.70;79.70;;;;;;4880791;29;20045;-81
2022/06/19 13:22:18;;;;;;;0.00;0.00;;;26.60;79.70;;;;;;4880825;29;20084;-81
2022/06/19 13:25:00;;;;;;;0.00;0.00;;;25.70;79.70;;;;;;4891142;29;20040;-81